Gino Lisa

.../... Flights

ABOUT

NAME
Gino Lisa
IDENTIFIER
FOG/LIBF
COUNTRY
Flag for IT Italy
SERVES
Foggia , Italy
OPERATOR
Aeroporti di Puglia - S.p.A.
PUBLIC/PRIVATE
Public
LOCAL TIME
24. May 14:34 CEST
DESCRIPTION
Foggia "Gino Lisa" Airport is an airport serving Foggia, Italy. Its name commemorates the Italian aviator Gino Lisa [it].
SOURCE: Wikipedia
RUNWAYS
IDENTIFIER Length (m/ft) SURFACE
16/34 1,795/5,890 Asphalt

STATISTICS

PER DAY
FLIGHTS
0
AVERAGE DISTANCE
674km (418mi)
AVERAGE DELAYS
FLIGHTS
25% delayed
(0.1 Flights/Day delayed)
AVERAGE DELAY
12 minutes

CURRENT WEATHER

TEMPERATURE
27 C (humidity: 39%)
WIND
10kt (18km/h / 11mph) from 90°
CLOUDS
Scattered clouds at 3,000 feet (914 meter)
VISIBILITY
9km (6 mi.)
METAR
METAR LIBF 241152Z 09010KT 9999 SCT030 27/12 Q1017
Updated: 42 minutes ago

CURRENT FLIGHTS

DEPARTURES

NUMBER DEPARTURE TO
L9223
On Time
17:35 Flag for IT Milan
L9241
On Time
17:50 Flag for IT Turin

ARRIVALS

NUMBER ARRIVAL FROM
L9224
On Time
21:40 Flag for IT Milan
L9242
On Time
21:50 Flag for IT Turin

TOP DESTINATIONS

AIRPORT
Flag for IT  Milan (LIN)
Flag for IT  Milan (MXP)

AIRLINES & PLANES

TOP AIRLINES

AIRLINE DEPARTURES
per day
SEATS
per day
Bristow USA <1 47

TOP MODELS

MODEL DEPARTURES
per day
SEATS
per day
Embraer E195 0.4 47

© 2017 - 2023 Flightera. All rights reserved.